Time;durP1;ratioP1;P1;durP2;ratioP2;P2;SDS_P1;SDS_P2;PMS_P1;PMS_P2;Temp;Humidity;BMP_temperature;BMP_pressure;BME280_temperature;BME280_humidity;BME280_pressure;Samples;Min_cycle;Max_cycle;Signal;HPM_P1;HPM_P2
2022/08/24 00:01:17;;;;;;;3.38;1.60;;;20.10;99.90;;;;;;5060751;28;20049;-73
2022/08/24 00:03:44;;;;;;;3.72;1.80;;;20.00;99.90;;;;;;5063760;28;20393;-73
2022/08/24 00:06:13;;;;;;;7.53;1.77;;;20.00;99.90;;;;;;5062623;28;20064;-74
2022/08/24 00:08:40;;;;;;;4.43;1.63;;;19.90;99.90;;;;;;5059126;28;20506;-73
2022/08/24 00:11:06;;;;;;;3.70;1.50;;;19.90;99.90;;;;;;5053395;28;20048;-74
2022/08/24 00:13:33;;;;;;;4.55;1.60;;;19.80;99.90;;;;;;5065934;28;20088;-74
2022/08/24 00:15:59;;;;;;;3.72;1.60;;;19.80;99.90;;;;;;5056148;28;20033;-73
2022/08/24 00:18:25;;;;;;;3.15;1.55;;;19.90;99.90;;;;;;5058542;28;20040;-73
2022/08/24 00:20:52;;;;;;;3.72;1.60;;;19.80;99.90;;;;;;5059865;28;20040;-73
2022/08/24 00:23:17;;;;;;;5.97;1.50;;;19.80;99.90;;;;;;5060556;28;20067;-73
2022/08/24 00:25:44;;;;;;;5.03;2.00;;;19.80;99.90;;;;;;5066025;28;20103;-73
2022/08/24 00:28:10;;;;;;;4.28;1.92;;;19.80;99.90;;;;;;5061643;28;20809;-73
2022/08/24 00:30:36;;;;;;;4.60;2.00;;;19.80;99.90;;;;;;5066172;28;20434;-73
2022/08/24 00:33:02;;;;;;;4.68;1.63;;;19.80;99.90;;;;;;5055891;28;20112;-73
2022/08/24 00:35:28;;;;;;;4.75;1.95;;;19.50;99.90;;;;;;5062314;28;20047;-73
2022/08/24 00:37:54;;;;;;;4.20;1.70;;;19.30;99.90;;;;;;5054526;28;20032;-73
2022/08/24 00:40:26;;;;;;;4.22;1.67;;;19.30;99.90;;;;;;5063316;28;20101;-73
2022/08/24 00:42:54;;;;;;;3.13;1.40;;;19.30;99.90;;;;;;5057983;28;20127;-73
2022/08/24 00:45:21;;;;;;;4.25;1.67;;;19.40;99.90;;;;;;5067262;28;20021;-73
2022/08/24 00:47:57;;;;;;;3.78;1.60;;;19.40;99.90;;;;;;5063743;28;20136;-73
2022/08/24 00:50:47;;;;;;;4.57;1.73;;;19.40;99.90;;;;;;5065447;28;20028;-73
2022/08/24 00:53:29;;;;;;;3.90;1.98;;;19.40;99.90;;;;;;5055949;28;20083;-73
2022/08/24 00:56:02;;;;;;;3.47;1.90;;;19.40;99.90;;;;;;5053305;28;20079;-73
2022/08/24 00:58:37;;;;;;;4.20;1.77;;;19.50;99.90;;;;;;5058956;28;20032;-73
2022/08/24 01:01:05;;;;;;;3.67;1.90;;;19.50;99.90;;;;;;5065155;28;20040;-73
2022/08/24 01:03:33;;;;;;;3.60;1.60;;;19.40;99.90;;;;;;5062408;28;20079;-73
2022/08/24 01:05:59;;;;;;;6.10;1.90;;;19.40;99.90;;;;;;5059493;28;20078;-73
2022/08/24 01:08:25;;;;;;;3.05;1.42;;;19.30;99.90;;;;;;5059509;28;20540;-73
2022/08/24 01:10:57;;;;;;;5.97;1.65;;;19.10;99.90;;;;;;5062188;28;20474;-73
2022/08/24 01:13:24;;;;;;;4.97;1.77;;;19.00;99.90;;;;;;5055583;28;20044;-73
2022/08/24 01:15:53;;;;;;;2.67;1.55;;;18.90;99.90;;;;;;5066693;28;20462;-73
2022/08/24 01:21:14;;;;;;;4.80;1.75;;;18.90;99.90;;;;;;5053035;28;20044;-73
2022/08/24 01:24:02;;;;;;;5.05;1.90;;;19.00;99.90;;;;;;5056086;28;20166;-73
2022/08/24 01:26:36;;;;;;;4.45;2.20;;;19.00;99.90;;;;;;5061883;28;20107;-73
2022/08/24 01:29:07;;;;;;;3.28;1.52;;;19.10;99.90;;;;;;5055110;28;20033;-73
2022/08/24 01:31:33;;;;;;;4.10;1.60;;;19.10;99.90;;;;;;5061175;28;20032;-73
2022/08/24 01:33:59;;;;;;;3.13;1.73;;;19.20;99.90;;;;;;5064965;28;20498;-72
2022/08/24 01:36:31;;;;;;;3.28;1.67;;;19.20;99.90;;;;;;5064215;28;20020;-73
2022/08/24 01:39:03;;;;;;;3.42;1.63;;;19.10;99.90;;;;;;5056828;28;20029;-73
2022/08/24 01:41:28;;;;;;;2.78;1.55;;;19.10;99.90;;;;;;5054607;28;20120;-73
2022/08/24 01:43:55;;;;;;;4.28;1.90;;;19.10;99.90;;;;;;5062554;28;20520;-73
2022/08/24 01:46:21;;;;;;;5.00;1.80;;;19.10;99.90;;;;;;5059088;28;20482;-73
2022/08/24 01:48:46;;;;;;;5.35;1.70;;;19.00;99.90;;;;;;5056823;28;20040;-73
2022/08/24 01:51:12;;;;;;;4.97;1.52;;;19.00;99.90;;;;;;5062076;28;20040;-73
2022/08/24 01:53:38;;;;;;;3.15;1.70;;;19.10;99.90;;;;;;5064478;28;20589;-73
2022/08/24 01:56:04;;;;;;;3.70;1.88;;;19.00;99.90;;;;;;5061510;28;20048;-73
2022/08/24 01:58:31;;;;;;;3.30;1.60;;;19.10;99.90;;;;;;5057861;28;20032;-73
2022/08/24 02:00:57;;;;;;;5.22;2.00;;;19.20;99.90;;;;;;5041447;28;20120;-73
2022/08/24 02:03:23;;;;;;;3.28;1.75;;;19.20;99.90;;;;;;5053506;28;20119;-73
2022/08/24 02:05:49;;;;;;;4.22;1.90;;;19.00;99.90;;;;;;5057470;28;20025;-73
2022/08/24 02:08:15;;;;;;;2.95;1.58;;;18.90;99.90;;;;;;5062210;28;20182;-73
2022/08/24 02:10:41;;;;;;;3.35;1.80;;;18.80;99.90;;;;;;5061713;28;20103;-73
2022/08/24 02:13:07;;;;;;;4.50;1.48;;;18.80;99.90;;;;;;5065788;28;20098;-73
2022/08/24 02:15:38;;;;;;;6.00;1.63;;;18.80;99.90;;;;;;5059868;28;20483;-73
2022/08/24 02:18:06;;;;;;;3.60;1.75;;;18.80;99.90;;;;;;5062666;28;20028;-73
2022/08/24 02:20:33;;;;;;;3.92;1.63;;;18.80;99.90;;;;;;5059671;28;20463;-73
2022/08/24 02:23:00;;;;;;;3.75;2.08;;;18.80;99.90;;;;;;5068981;28;20151;-73
2022/08/24 02:25:29;;;;;;;3.13;1.60;;;18.70;99.90;;;;;;5064934;28;20729;-73
2022/08/24 02:27:59;;;;;;;4.88;1.67;;;18.70;99.90;;;;;;5067165;28;20036;-73
2022/08/24 02:30:25;;;;;;;3.38;1.65;;;18.30;99.90;;;;;;5059415;28;20032;-73
2022/08/24 02:32:51;;;;;;;3.40;1.80;;;18.30;99.90;;;;;;5066739;28;20076;-73
2022/08/24 02:35:17;;;;;;;6.35;1.67;;;18.30;99.90;;;;;;5066887;28;20147;-73
2022/08/24 02:37:43;;;;;;;4.15;1.55;;;18.40;99.90;;;;;;5062442;28;20174;-73
2022/08/24 02:40:11;;;;;;;3.88;1.50;;;18.40;99.90;;;;;;5068040;28;20024;-73
2022/08/24 02:42:36;;;;;;;3.30;1.70;;;18.40;99.90;;;;;;5061353;28;20148;-73
2022/08/24 02:45:04;;;;;;;6.18;2.08;;;18.20;99.90;;;;;;5068975;28;20123;-73
2022/08/24 02:47:30;;;;;;;3.65;1.60;;;18.10;99.90;;;;;;5062785;28;20047;-73
2022/08/24 02:49:56;;;;;;;4.18;2.05;;;18.10;99.90;;;;;;5061489;28;20028;-72
2022/08/24 02:52:22;;;;;;;3.45;1.83;;;18.10;99.90;;;;;;5069247;28;20097;-72
2022/08/24 02:54:47;;;;;;;5.22;2.10;;;18.20;99.90;;;;;;5067875;28;20032;-73
2022/08/24 02:57:13;;;;;;;3.67;1.70;;;18.20;99.90;;;;;;5063939;28;20084;-73
2022/08/24 02:59:39;;;;;;;3.40;1.85;;;18.30;99.90;;;;;;5060768;28;20120;-73
2022/08/24 03:02:05;;;;;;;2.80;1.45;;;18.20;99.90;;;;;;5067618;28;20029;-73
2022/08/24 03:04:30;;;;;;;3.58;1.58;;;17.90;99.90;;;;;;5056381;28;20040;-73
2022/08/24 03:06:57;;;;;;;8.75;1.98;;;17.90;99.90;;;;;;5048271;28;20044;-73
2022/08/24 03:09:23;;;;;;;3.65;1.90;;;17.90;99.90;;;;;;5056584;28;20740;-73
2022/08/24 03:11:49;;;;;;;4.20;1.70;;;17.90;99.90;;;;;;5063895;28;20115;-73
2022/08/24 03:14:16;;;;;;;3.80;1.42;;;17.90;99.90;;;;;;5061348;28;20418;-73
2022/08/24 03:16:41;;;;;;;2.47;1.27;;;18.10;99.90;;;;;;5054826;28;20029;-73
2022/08/24 03:19:07;;;;;;;5.78;1.60;;;18.20;99.90;;;;;;5056738;28;20448;-73
2022/08/24 03:21:33;;;;;;;3.45;1.40;;;18.10;99.90;;;;;;5054314;28;20036;-73
2022/08/24 03:23:58;;;;;;;4.22;1.92;;;18.10;99.90;;;;;;5065043;28;20040;-73
2022/08/24 03:26:24;;;;;;;3.67;1.80;;;18.00;99.90;;;;;;5036659;28;20032;-73
2022/08/24 03:28:50;;;;;;;6.78;2.20;;;18.00;99.90;;;;;;5056166;28;20028;-73
2022/08/24 03:31:16;;;;;;;4.32;2.00;;;17.90;99.90;;;;;;5060724;28;20087;-73
2022/08/24 03:33:42;;;;;;;3.55;1.67;;;17.60;99.90;;;;;;5066168;28;20044;-73
2022/08/24 03:36:08;;;;;;;5.47;1.95;;;17.60;99.90;;;;;;5064302;28;20033;-73
2022/08/24 03:38:33;;;;;;;4.65;1.63;;;17.60;99.90;;;;;;5059344;28;20425;-73
2022/08/24 03:41:00;;;;;;;3.08;1.48;;;17.80;99.90;;;;;;5056986;28;20051;-73
2022/08/24 03:46:10;;;;;;;6.78;1.63;;;17.80;99.90;;;;;;5061834;28;20503;-73
2022/08/24 03:48:38;;;;;;;3.85;1.88;;;17.60;99.90;;;;;;5055275;28;20067;-73
2022/08/24 03:51:04;;;;;;;5.38;1.60;;;17.60;99.90;;;;;;5059142;28;20083;-73
2022/08/24 03:53:30;;;;;;;4.15;1.92;;;17.70;99.90;;;;;;5052922;28;20529;-73
2022/08/24 03:55:55;;;;;;;2.78;1.63;;;17.70;99.90;;;;;;5053967;28;20127;-73
2022/08/24 03:58:21;;;;;;;3.92;1.70;;;17.80;99.90;;;;;;5060506;28;20052;-73
2022/08/24 04:00:47;;;;;;;6.75;2.10;;;17.90;99.90;;;;;;5058136;28;20384;-73
2022/08/24 04:03:13;;;;;;;3.60;2.03;;;17.80;99.90;;;;;;5061628;28;20585;-73
2022/08/24 04:05:41;;;;;;;4.55;1.67;;;17.80;99.90;;;;;;5061797;28;20032;-73
2022/08/24 04:08:09;;;;;;;3.97;2.22;;;17.80;99.90;;;;;;5055368;28;20119;-73
2022/08/24 04:10:35;;;;;;;4.53;1.55;;;17.60;99.90;;;;;;5052643;28;20090;-73
2022/08/24 04:13:00;;;;;;;3.30;1.80;;;17.50;99.90;;;;;;5051953;28;20041;-73
2022/08/24 04:15:30;;;;;;;3.42;1.58;;;17.50;99.90;;;;;;5031249;28;20033;-73
2022/08/24 04:17:56;;;;;;;3.53;1.60;;;17.60;99.90;;;;;;5054489;28;20048;-73
2022/08/24 04:20:24;;;;;;;8.07;1.88;;;17.50;99.90;;;;;;5031270;28;20048;-73
2022/08/24 04:22:50;;;;;;;3.83;2.08;;;17.60;99.90;;;;;;5051367;28;20043;-73
2022/08/24 04:25:16;;;;;;;4.57;1.60;;;17.60;99.90;;;;;;5058884;28;20040;-73
2022/08/24 04:27:41;;;;;;;4.43;1.67;;;17.50;99.90;;;;;;5050588;28;20048;-73
2022/08/24 04:30:08;;;;;;;4.32;1.77;;;17.30;99.90;;;;;;5057240;28;20468;-73
2022/08/24 04:32:34;;;;;;;3.80;1.42;;;17.20;99.90;;;;;;5059624;28;20040;-73
2022/08/24 04:35:00;;;;;;;3.03;1.35;;;17.30;99.90;;;;;;5058724;28;20597;-73
2022/08/24 04:37:25;;;;;;;2.75;1.38;;;17.30;99.90;;;;;;5052245;28;20078;-73
2022/08/24 04:39:52;;;;;;;2.90;1.58;;;17.20;99.90;;;;;;5049147;28;20111;-73
2022/08/24 04:42:18;;;;;;;2.78;1.40;;;17.20;99.90;;;;;;5050111;28;20032;-73
2022/08/24 04:44:44;;;;;;;4.00;1.30;;;17.20;99.90;;;;;;5050709;28;20021;-73
2022/08/24 04:47:10;;;;;;;3.35;1.52;;;17.30;99.90;;;;;;5055488;28;20028;-72
2022/08/24 04:49:37;;;;;;;3.60;1.63;;;17.50;99.90;;;;;;5052581;28;20915;-73
2022/08/24 04:52:03;;;;;;;3.90;1.75;;;17.20;99.90;;;;;;5052520;28;20497;-73
2022/08/24 04:54:30;;;;;;;3.67;1.30;;;17.00;99.90;;;;;;5049398;28;20039;-73
2022/08/24 04:56:57;;;;;;;4.00;1.73;;;17.00;99.90;;;;;;5048518;28;20072;-73
2022/08/24 04:59:23;;;;;;;2.53;1.30;;;16.90;99.90;;;;;;5047461;28;20089;-73
2022/08/24 05:01:49;;;;;;;4.13;2.05;;;17.10;99.90;;;;;;5060571;28;20025;-73
2022/08/24 05:04:14;;;;;;;3.45;1.60;;;17.10;99.90;;;;;;5049457;28;20576;-73
2022/08/24 05:06:43;;;;;;;3.38;1.65;;;17.20;99.90;;;;;;5054074;28;20086;-73
2022/08/24 05:09:09;;;;;;;4.43;1.40;;;17.30;99.90;;;;;;5053093;28;20053;-73
2022/08/24 05:11:36;;;;;;;3.38;1.27;;;17.30;99.90;;;;;;5055069;28;20027;-73
2022/08/24 05:14:02;;;;;;;3.75;1.63;;;17.20;99.90;;;;;;5055546;28;20521;-73
2022/08/24 05:16:28;;;;;;;3.25;1.88;;;17.10;99.90;;;;;;5050676;28;20089;-73
2022/08/24 05:18:55;;;;;;;3.72;2.03;;;17.30;99.90;;;;;;5049287;28;20032;-73
2022/08/24 05:21:23;;;;;;;3.63;1.50;;;17.50;99.90;;;;;;5049848;28;20423;-73
2022/08/24 05:23:49;;;;;;;5.78;1.42;;;17.60;99.70;;;;;;5057840;28;20062;-73
2022/08/24 05:26:23;;;;;;;2.53;1.30;;;17.50;99.90;;;;;;5046418;28;20082;-73
2022/08/24 05:28:49;;;;;;;3.38;1.42;;;17.50;99.90;;;;;;5052860;28;20032;-73
2022/08/24 05:31:20;;;;;;;5.18;2.33;;;17.50;99.80;;;;;;5049538;28;20117;-73
2022/08/24 05:33:47;;;;;;;3.03;1.42;;;17.40;99.90;;;;;;5059869;28;20555;-74
2022/08/24 05:36:20;;;;;;;3.42;1.58;;;17.30;99.90;;;;;;5054775;28;20056;-73
2022/08/24 05:38:47;;;;;;;3.38;1.38;;;17.50;99.30;;;;;;5053503;28;20020;-72
2022/08/24 05:41:14;;;;;;;3.60;1.40;;;17.60;99.90;;;;;;5063572;28;20036;-72
2022/08/24 05:43:39;;;;;;;3.13;1.50;;;17.50;99.90;;;;;;5058483;28;20029;-75
2022/08/24 05:46:05;;;;;;;3.10;1.40;;;17.50;99.70;;;;;;5038463;28;20696;-74
2022/08/24 05:48:33;;;;;;;3.25;1.45;;;17.50;99.50;;;;;;5045788;28;20721;-72
2022/08/24 05:50:59;;;;;;;3.33;1.20;;;17.50;99.70;;;;;;5053451;28;20666;-75
2022/08/24 05:53:25;;;;;;;4.35;1.70;;;17.50;99.60;;;;;;5048649;28;20094;-75
2022/08/24 05:55:51;;;;;;;4.63;1.48;;;17.60;98.90;;;;;;5057394;28;20024;-75
2022/08/24 05:58:17;;;;;;;3.95;1.85;;;17.70;98.90;;;;;;5042092;28;20056;-74
2022/08/24 06:00:45;;;;;;;2.67;1.30;;;17.50;99.30;;;;;;5047284;28;20032;-75
2022/08/24 06:03:15;;;;;;;3.95;1.50;;;17.50;99.30;;;;;;5050206;28;20025;-74
2022/08/24 06:05:41;;;;;;;6.72;1.58;;;17.30;99.60;;;;;;5050397;28;20059;-75
2022/08/24 06:08:08;;;;;;;3.28;1.50;;;17.10;99.90;;;;;;5032233;28;20347;-75
2022/08/24 06:10:42;;;;;;;3.75;1.13;;;17.40;99.50;;;;;;5059598;28;20461;-76
2022/08/24 06:13:10;;;;;;;3.20;1.40;;;17.60;98.90;;;;;;5045197;28;20396;-75
2022/08/24 06:15:36;;;;;;;3.25;1.20;;;17.80;99.00;;;;;;5054927;28;20102;-76
2022/08/24 06:18:04;;;;;;;3.55;1.40;;;17.80;98.90;;;;;;5052296;28;20040;-75
2022/08/24 06:20:30;;;;;;;2.63;1.48;;;17.80;99.50;;;;;;5051538;28;20029;-75
2022/08/24 06:22:56;;;;;;;4.70;1.38;;;17.80;99.10;;;;;;5049163;28;20041;-75
2022/08/24 06:28:06;;;;;;;4.35;1.95;;;17.70;99.40;;;;;;5046595;28;20035;-76
2022/08/24 06:30:33;;;;;;;3.80;1.67;;;17.70;99.90;;;;;;5046632;28;20033;-73
2022/08/24 06:33:00;;;;;;;5.05;1.90;;;17.80;99.60;;;;;;5055273;28;20450;-75
2022/08/24 06:35:26;;;;;;;4.60;1.50;;;17.70;99.80;;;;;;5050268;28;20029;-73
2022/08/24 06:37:52;;;;;;;2.95;1.60;;;17.90;99.70;;;;;;5043008;28;20043;-72
2022/08/24 06:40:20;;;;;;;2.63;1.60;;;18.30;99.50;;;;;;5057832;28;20039;-73
2022/08/24 06:42:47;;;;;;;4.10;1.48;;;18.80;99.30;;;;;;5050980;28;20036;-73
2022/08/24 06:45:13;;;;;;;5.13;1.83;;;19.10;98.80;;;;;;5049478;28;20438;-74
2022/08/24 06:47:40;;;;;;;51.42;8.90;;;19.40;98.60;;;;;;5053247;28;20040;-75
2022/08/24 06:50:07;;;;;;;9.57;3.03;;;19.90;98.00;;;;;;5043867;28;20084;-73
2022/08/24 06:52:34;;;;;;;7.53;1.60;;;20.60;97.80;;;;;;5055016;28;20070;-73
2022/08/24 06:55:00;;;;;;;6.88;2.13;;;21.00;96.90;;;;;;5047461;28;20036;-73
2022/08/24 06:57:26;;;;;;;5.30;2.17;;;22.30;94.90;;;;;;5046026;28;20049;-74
2022/08/24 06:59:53;;;;;;;8.35;1.90;;;23.50;94.10;;;;;;5055499;28;20037;-73
2022/08/24 07:02:19;;;;;;;7.25;2.08;;;24.70;92.50;;;;;;5051369;28;20029;-72
2022/08/24 07:04:45;;;;;;;9.30;1.95;;;25.70;91.20;;;;;;5060065;28;20274;-72
2022/08/24 07:07:11;;;;;;;5.28;1.30;;;27.00;89.40;;;;;;5051541;28;20387;-73
2022/08/24 07:09:37;;;;;;;4.10;1.58;;;27.00;87.80;;;;;;5065676;28;20463;-72
2022/08/24 07:12:04;;;;;;;5.15;1.58;;;26.90;86.30;;;;;;5055844;28;20044;-73
2022/08/24 07:14:30;;;;;;;3.40;1.60;;;27.30;84.90;;;;;;5048023;28;20037;-74
2022/08/24 07:16:56;;;;;;;3.25;1.73;;;27.70;83.70;;;;;;5067185;28;20028;-73
2022/08/24 07:19:22;;;;;;;4.72;2.15;;;29.20;81.30;;;;;;5066612;28;20105;-75
2022/08/24 07:21:47;;;;;;;10.00;1.80;;;29.20;80.10;;;;;;5066533;28;20105;-75
2022/08/24 07:24:13;;;;;;;3.35;1.60;;;29.00;81.40;;;;;;5054274;28;20021;-75
2022/08/24 07:26:40;;;;;;;4.07;1.80;;;29.10;81.40;;;;;;5057001;28;20025;-74
2022/08/24 07:29:10;;;;;;;3.38;1.65;;;28.90;81.20;;;;;;5048970;28;20114;-74
2022/08/24 07:31:38;;;;;;;2.88;1.25;;;29.20;80.80;;;;;;5046994;28;20040;-75
2022/08/24 07:34:06;;;;;;;3.67;1.60;;;28.40;80.00;;;;;;5054813;28;20032;-74
2022/08/24 07:36:33;;;;;;;4.95;1.90;;;28.40;78.10;;;;;;5057312;28;20037;-75
2022/08/24 07:38:59;;;;;;;3.53;1.83;;;26.00;80.10;;;;;;5050371;28;20029;-75
2022/08/24 07:41:26;;;;;;;3.78;1.67;;;23.80;86.10;;;;;;5046205;28;20037;-75
2022/08/24 07:43:53;;;;;;;3.70;1.35;;;22.30;89.40;;;;;;5046424;28;20379;-73
2022/08/24 07:46:19;;;;;;;3.67;1.40;;;21.50;91.30;;;;;;5048632;28;20443;-78
2022/08/24 07:48:45;;;;;;;3.85;2.10;;;21.20;91.50;;;;;;5066268;28;20032;-78
2022/08/24 07:51:13;;;;;;;4.65;1.90;;;21.20;91.00;;;;;;5059811;28;20029;-79
2022/08/24 07:53:40;;;;;;;4.25;1.48;;;21.20;91.20;;;;;;5055279;28;20040;-79
2022/08/24 07:56:06;;;;;;;3.30;1.42;;;20.90;91.80;;;;;;5060605;28;20579;-76
2022/08/24 07:58:34;;;;;;;3.55;1.83;;;21.00;92.00;;;;;;5048922;28;20035;-77
2022/08/24 08:01:00;;;;;;;4.13;1.70;;;20.90;91.90;;;;;;5048904;28;20453;-78
2022/08/24 08:03:26;;;;;;;3.33;1.60;;;21.00;91.20;;;;;;5046385;28;20037;-77
2022/08/24 08:05:59;;;;;;;6.38;1.98;;;21.00;90.90;;;;;;5047205;28;20391;-77
2022/08/24 08:08:26;;;;;;;8.35;1.55;;;21.00;90.90;;;;;;5054781;28;20049;-77
2022/08/24 08:10:52;;;;;;;9.20;1.98;;;20.90;90.20;;;;;;5048541;28;20477;-78
2022/08/24 08:13:18;;;;;;;6.07;1.83;;;21.00;90.70;;;;;;5057834;28;20041;-79
2022/08/24 08:15:43;;;;;;;5.07;1.58;;;21.00;90.20;;;;;;5047406;28;20490;-78
2022/08/24 08:18:10;;;;;;;3.50;1.30;;;21.00;89.90;;;;;;5054448;28;20055;-76
2022/08/24 08:20:38;;;;;;;2.92;1.30;;;21.10;90.20;;;;;;5046532;28;20060;-77
2022/08/24 08:25:53;;;;;;;5.30;1.63;;;21.20;89.20;;;;;;5066402;28;20040;-76
2022/08/24 08:28:19;;;;;;;3.67;1.50;;;21.30;89.30;;;;;;5066785;28;20429;-79
2022/08/24 08:30:45;;;;;;;3.15;1.63;;;21.20;88.70;;;;;;5065267;28;20035;-75
2022/08/24 08:33:12;;;;;;;3.10;1.40;;;21.20;89.50;;;;;;5066528;28;20044;-77
2022/08/24 08:35:39;;;;;;;4.57;1.60;;;21.40;88.40;;;;;;5067145;28;20490;-77
2022/08/24 08:38:06;;;;;;;3.58;1.85;;;21.50;89.60;;;;;;5065956;28;20402;-74
2022/08/24 08:40:44;;;;;;;3.60;1.70;;;21.80;89.80;;;;;;5065087;28;20037;-76
2022/08/24 08:43:27;;;;;;;3.90;1.77;;;24.60;86.00;;;;;;5067051;28;20028;-74
2022/08/24 08:46:34;;;;;;;4.30;1.70;;;26.80;81.30;;;;;;5067539;28;20043;-75
2022/08/24 08:49:26;;;;;;;3.00;1.60;;;27.60;79.20;;;;;;5065350;28;20633;-75
2022/08/24 08:52:29;;;;;;;2.97;1.60;;;28.00;78.70;;;;;;5062880;28;20116;-74
2022/08/24 08:55:22;;;;;;;3.13;1.23;;;27.40;78.40;;;;;;5065003;28;20437;-76
2022/08/24 08:57:52;;;;;;;5.65;1.50;;;28.40;77.60;;;;;;5063959;28;20109;-76
2022/08/24 09:00:22;;;;;;;3.97;1.63;;;28.50;78.10;;;;;;5065011;28;20044;-76
2022/08/24 09:03:08;;;;;;;3.13;1.45;;;28.50;77.80;;;;;;5063953;28;20029;-73
2022/08/24 09:06:16;;;;;;;7.20;1.73;;;28.90;77.50;;;;;;5051980;28;20074;-75
2022/08/24 09:09:05;;;;;;;3.00;1.58;;;28.40;77.30;;;;;;5044909;28;20037;-75
2022/08/24 09:11:53;;;;;;;5.25;1.95;;;28.00;77.50;;;;;;5044409;28;20033;-75
2022/08/24 09:14:50;;;;;;;4.30;1.35;;;27.50;77.70;;;;;;5049272;28;20036;-76
2022/08/24 09:17:22;;;;;;;3.53;1.40;;;26.50;77.20;;;;;;5064114;28;20036;-76
2022/08/24 09:20:07;;;;;;;3.28;1.60;;;25.80;78.90;;;;;;5064889;28;20932;-76
2022/08/24 09:22:40;;;;;;;4.25;1.48;;;25.30;79.60;;;;;;5061544;28;20506;-77
2022/08/24 09:25:34;;;;;;;3.30;1.48;;;24.70;79.90;;;;;;5063820;28;20056;-77
2022/08/24 09:28:41;;;;;;;6.65;1.58;;;24.70;78.80;;;;;;5067335;28;20039;-77
2022/08/24 09:31:40;;;;;;;2.38;1.30;;;24.70;79.70;;;;;;5044520;28;20502;-78
2022/08/24 09:34:26;;;;;;;3.58;1.33;;;24.20;81.30;;;;;;5058001;28;20036;-75
2022/08/24 09:36:52;;;;;;;4.15;1.38;;;24.50;81.70;;;;;;5065502;28;20036;-77
2022/08/24 09:39:17;;;;;;;2.53;1.40;;;24.60;82.10;;;;;;5067782;28;20103;-75
2022/08/24 09:41:47;;;;;;;2.63;1.13;;;24.90;79.10;;;;;;5068299;28;20374;-76
2022/08/24 09:44:45;;;;;;;5.28;1.42;;;24.90;79.80;;;;;;5067344;28;20078;-76
2022/08/24 09:47:41;;;;;;;4.88;1.52;;;24.90;78.00;;;;;;5063659;28;20047;-77
2022/08/24 09:50:23;;;;;;;3.33;1.20;;;25.00;78.00;;;;;;5064263;28;20413;-75
2022/08/24 09:53:16;;;;;;;3.83;1.50;;;24.70;77.30;;;;;;5064436;28;20048;-77
2022/08/24 09:56:00;;;;;;;4.07;1.50;;;24.90;77.60;;;;;;5067488;28;20063;-77
2022/08/24 09:58:44;;;;;;;2.85;1.48;;;24.90;77.30;;;;;;5065669;28;20041;-77
2022/08/24 10:01:36;;;;;;;2.78;1.40;;;25.30;77.30;;;;;;5063228;28;20028;-76
2022/08/24 10:04:36;;;;;;;6.35;1.35;;;25.50;78.40;;;;;;5049674;28;20033;-76
2022/08/24 10:07:37;;;;;;;3.00;1.48;;;25.80;78.00;;;;;;5054596;28;20411;-77
2022/08/24 10:10:29;;;;;;;3.92;1.50;;;25.90;76.80;;;;;;5026692;28;20084;-77
2022/08/24 10:13:12;;;;;;;2.53;1.10;;;25.80;76.60;;;;;;5037483;28;20048;-77
2022/08/24 10:15:44;;;;;;;2.55;1.25;;;25.90;78.40;;;;;;5067777;28;20479;-77
2022/08/24 10:18:40;;;;;;;4.13;1.40;;;25.90;75.60;;;;;;5067233;28;20021;-77
2022/08/24 10:21:31;;;;;;;5.15;1.10;;;25.70;75.80;;;;;;5065714;28;20069;-77
2022/08/24 10:24:18;;;;;;;2.60;1.20;;;26.00;74.60;;;;;;5063123;28;20032;-77
2022/08/24 10:27:04;;;;;;;2.58;1.40;;;26.10;75.70;;;;;;5067164;28;20039;-77
2022/08/24 10:29:55;;;;;;;2.10;1.33;;;26.20;76.30;;;;;;5067102;28;20120;-77
2022/08/24 10:32:41;;;;;;;3.65;1.25;;;26.30;74.50;;;;;;5046772;28;20029;-77
2022/08/24 10:35:32;;;;;;;3.25;1.42;;;26.80;75.20;;;;;;5064243;28;20033;-77
2022/08/24 10:41:40;;;;;;;2.90;1.55;;;27.10;74.30;;;;;;5067147;28;20094;-76
2022/08/24 10:44:44;;;;;;;3.50;1.60;;;27.40;75.20;;;;;;5068567;28;20040;-75
2022/08/24 10:47:34;;;;;;;6.55;1.40;;;27.40;74.40;;;;;;5071423;28;20037;-77
2022/08/24 10:50:14;;;;;;;2.80;1.33;;;27.50;74.70;;;;;;5069446;28;20488;-77
2022/08/24 10:52:48;;;;;;;4.10;1.30;;;27.40;73.00;;;;;;5069640;28;20036;-75
2022/08/24 10:55:20;;;;;;;2.58;1.48;;;27.30;74.00;;;;;;5070602;28;20178;-77
2022/08/24 10:58:11;;;;;;;5.00;1.48;;;27.40;74.90;;;;;;5053750;28;20128;-77
2022/08/24 11:00:38;;;;;;;2.55;1.35;;;27.40;72.00;;;;;;5055585;28;20079;-77
2022/08/24 11:03:13;;;;;;;2.58;1.08;;;27.40;72.60;;;;;;5070810;28;20032;-77
2022/08/24 11:05:46;;;;;;;3.03;1.30;;;27.30;72.70;;;;;;5050689;28;20449;-77
2022/08/24 11:08:22;;;;;;;2.50;1.02;;;27.40;73.10;;;;;;5070146;28;20032;-77
2022/08/24 11:11:09;;;;;;;3.42;0.90;;;27.40;71.70;;;;;;5069823;28;20044;-77
2022/08/24 11:13:37;;;;;;;2.38;0.98;;;27.80;71.80;;;;;;5070483;28;20041;-77
2022/08/24 11:16:04;;;;;;;2.75;1.10;;;27.80;71.90;;;;;;5070370;28;20028;-77
2022/08/24 11:18:57;;;;;;;2.78;1.30;;;27.80;70.20;;;;;;5070775;28;20043;-77
2022/08/24 11:21:35;;;;;;;2.10;1.05;;;27.80;70.40;;;;;;5065859;28;20040;-78
2022/08/24 11:24:08;;;;;;;2.53;1.27;;;27.80;72.00;;;;;;5070391;28;20063;-77
2022/08/24 11:27:16;;;;;;;3.75;0.88;;;27.70;71.00;;;;;;5050725;28;20041;-77
2022/08/24 11:29:51;;;;;;;1.88;1.02;;;27.60;69.30;;;;;;5020401;28;20036;-76
2022/08/24 11:32:42;;;;;;;3.00;1.10;;;27.90;71.80;;;;;;5050602;28;20087;-78
2022/08/24 11:35:32;;;;;;;2.30;1.00;;;28.20;71.40;;;;;;5050537;28;20045;-77
2022/08/24 11:38:22;;;;;;;3.03;1.13;;;28.30;72.90;;;;;;5040722;28;20614;-77
2022/08/24 11:41:07;;;;;;;2.00;0.88;;;28.60;73.80;;;;;;5058281;28;20032;-77
2022/08/24 11:44:02;;;;;;;7.43;1.20;;;28.40;72.00;;;;;;5069640;28;20035;-77
2022/08/24 11:46:35;;;;;;;3.53;1.52;;;28.10;72.00;;;;;;5063060;28;20025;-77
2022/08/24 11:49:22;;;;;;;3.00;1.30;;;28.10;74.00;;;;;;5031715;28;20356;-77
2022/08/24 11:52:10;;;;;;;4.00;1.08;;;28.40;74.70;;;;;;5069026;28;20036;-77
2022/08/24 11:54:49;;;;;;;3.17;1.20;;;28.40;74.00;;;;;;5069897;28;20069;-77
2022/08/24 11:57:37;;;;;;;3.00;1.38;;;28.20;73.40;;;;;;5069808;28;20082;-77
2022/08/24 12:00:17;;;;;;;1.60;0.90;;;28.10;74.50;;;;;;5069029;28;20090;-78
2022/08/24 12:03:01;;;;;;;10.93;1.50;;;28.20;74.50;;;;;;5065324;28;20124;-77
2022/08/24 12:05:43;;;;;;;3.80;1.50;;;28.40;75.80;;;;;;5067940;28;20496;-78
2022/08/24 12:08:24;;;;;;;3.72;1.20;;;28.70;75.70;;;;;;5068732;28;20504;-77
2022/08/24 12:11:09;;;;;;;3.17;1.30;;;29.10;76.00;;;;;;5069089;28;20107;-77
2022/08/24 12:13:45;;;;;;;3.17;1.30;;;29.30;77.50;;;;;;5067215;28;20427;-77
2022/08/24 12:16:32;;;;;;;2.45;1.13;;;29.40;77.20;;;;;;5069140;28;20385;-77
2022/08/24 12:19:12;;;;;;;1.58;0.90;;;29.60;76.50;;;;;;5068581;28;20028;-77
2022/08/24 12:21:44;;;;;;;3.45;1.40;;;29.90;75.60;;;;;;5060412;28;20033;-77
2022/08/24 12:24:25;;;;;;;3.42;1.23;;;30.00;77.50;;;;;;5048932;28;20027;-78
2022/08/24 12:26:59;;;;;;;3.00;1.20;;;29.90;76.80;;;;;;5066838;28;20709;-78
2022/08/24 12:29:41;;;;;;;5.35;1.48;;;29.70;77.70;;;;;;5067287;28;20469;-77
2022/08/24 12:32:33;;;;;;;2.42;1.10;;;30.00;77.90;;;;;;5069073;28;20036;-77
2022/08/24 12:35:07;;;;;;;4.90;1.35;;;30.10;77.10;;;;;;5069209;28;20563;-77
2022/08/24 12:38:23;;;;;;;6.35;1.17;;;30.30;77.80;;;;;;5068812;28;20116;-78
2022/08/24 12:41:32;;;;;;;4.85;1.42;;;30.30;76.00;;;;;;5059441;28;20439;-78
2022/08/24 12:44:10;;;;;;;3.60;1.30;;;30.30;75.00;;;;;;5019892;28;20040;-78
2022/08/24 12:46:37;;;;;;;12.10;2.25;;;30.30;74.70;;;;;;5068782;28;20044;-77
2022/08/24 12:49:11;;;;;;;2.35;1.10;;;30.30;75.00;;;;;;5068925;28;20109;-77
2022/08/24 12:51:57;;;;;;;2.78;1.25;;;30.40;74.90;;;;;;5068801;28;20101;-78
2022/08/24 12:54:47;;;;;;;2.65;0.90;;;30.60;75.50;;;;;;5068568;28;20076;-77
2022/08/24 12:57:15;;;;;;;4.72;1.30;;;30.70;74.60;;;;;;5048580;28;20100;-78
2022/08/24 12:59:46;;;;;;;4.00;1.35;;;30.70;75.40;;;;;;5047586;28;20025;-79
2022/08/24 13:02:18;;;;;;;1.77;1.10;;;30.70;74.30;;;;;;5054867;28;20724;-77
2022/08/24 13:04:50;;;;;;;2.70;1.23;;;30.60;74.90;;;;;;5045984;28;20040;-78
2022/08/24 13:07:18;;;;;;;2.28;1.52;;;30.70;73.80;;;;;;5069253;28;20039;-78
2022/08/24 13:09:59;;;;;;;3.95;0.90;;;30.70;75.30;;;;;;5067504;28;20107;-77
2022/08/24 13:12:37;;;;;;;2.92;1.27;;;30.80;75.50;;;;;;5048962;28;20051;-78
2022/08/24 13:15:18;;;;;;;2.58;1.38;;;30.40;74.90;;;;;;5048838;28;20533;-78
2022/08/24 13:17:44;;;;;;;4.00;1.58;;;30.30;75.80;;;;;;5048523;28;20037;-78
2022/08/24 13:20:25;;;;;;;5.40;1.00;;;30.50;76.10;;;;;;5048264;28;20032;-77
2022/08/24 13:23:18;;;;;;;2.92;1.15;;;30.50;76.60;;;;;;5050523;28;20079;-78
2022/08/24 13:25:46;;;;;;;2.20;1.40;;;30.50;76.40;;;;;;5036489;28;20091;-78
2022/08/24 13:28:21;;;;;;;2.05;1.05;;;30.60;77.50;;;;;;5047368;28;20127;-78